METAR LDOS 280600Z VRB02KT CAVOK 25/20 Q1014=
METAR LDOS 280530Z 15003KT CAVOK 23/20 Q1014=
METAR LDOS 280500Z 17003KT CAVOK 21/20 Q1014=
METAR LDOS 280430Z 17005KT CAVOK 19/19 Q1014=
METAR LDOS 280400Z 17005KT CAVOK 18/17 Q1014=
METAR LDOS 280330Z VRB02KT CAVOK 19/18 Q1014=
METAR LDOS 280300Z 26001KT CAVOK 18/18 Q1014=
METAR LDOS 280230Z 28004KT CAVOK 19/19 Q1014=
METAR LDOS 280200Z 25002KT CAVOK 20/19 Q1014=
METAR LDOS 280130Z 27003KT CAVOK 20/19 Q1014=
METAR LDOS 280100Z 27004KT CAVOK 20/19 Q1014=
METAR LDOS 280030Z 19003KT CAVOK 21/19 Q1014=
METAR LDOS 280000Z 19002KT CAVOK 20/19 Q1015=
METAR LDOS 272330Z 18002KT CAVOK 21/19 Q1015=
METAR LDOS 272300Z VRB02KT CAVOK 21/19 Q1015=
METAR LDOS 272230Z 02004KT CAVOK 23/21 Q1015=
METAR LDOS 272200Z 35004KT CAVOK 23/21 Q1015=
METAR LDOS 272130Z VRB02KT CAVOK 23/20 Q1015=
METAR LDOS 272100Z 01003KT 310V040 CAVOK 25/21 Q1015=
METAR LDOS 272030Z VRB01KT CAVOK 23/20 Q1015=
METAR LDOS 272000Z 32005KT CAVOK 25/21 Q1015=
METAR LDOS 271930Z VRB01KT CAVOK 25/20 Q1015=
METAR LDOS 271900Z 03002KT CAVOK 26/21 Q1015=
METAR LDOS 271830Z 03005KT CAVOK 28/21 Q1015=
METAR LDOS 271800Z 06004KT CAVOK 30/20 Q1015=
METAR LDOS 271730Z 04005KT CAVOK 30/20 Q1015=
METAR LDOS 271700Z 34003KT 300V020 CAVOK 32/19 Q1015=
METAR LDOS 271630Z 36005KT CAVOK 32/18 Q1015=
METAR LDOS 271600Z 01004KT CAVOK 33/18 Q1015=
METAR LDOS 271530Z 02006KT CAVOK 34/18 Q1015=
METAR LDOS 271500Z 01004KT 330V040 CAVOK 35/17 Q1015=
METAR LDOS 271430Z 05005KT 320V090 CAVOK 34/17 Q1015=
METAR LDOS 271400Z 31008KT CAVOK 35/15 Q1016=
METAR LDOS 271330Z 29009KT CAVOK 35/15 Q1016=
METAR LDOS 271300Z VRB04KT CAVOK 35/15 Q1016=
METAR LDOS 271230Z VRB05KT CAVOK 35/15 Q1016=
METAR LDOS 271200Z 26008KT 230V290 CAVOK 35/13 Q1016=
METAR LDOS 271130Z 22007KT 170V290 CAVOK 35/16 Q1017=
METAR LDOS 271100Z 25008KT CAVOK 35/14 Q1017=
METAR LDOS 271030Z 23008KT 180V260 CAVOK 35/15 Q1017=
METAR LDOS 271000Z 23006KT 130V300 CAVOK 34/15 Q1017=
METAR LDOS 270930Z 24006KT 210V310 CAVOK 34/14 Q1017=
METAR LDOS 270900Z 23007KT 190V260 CAVOK 33/13 Q1016=
METAR LDOS 270830Z 21006KT 180V240 CAVOK 32/16 Q1016=
METAR LDOS 270800Z 22006KT CAVOK 31/15 Q1016=
METAR LDOS 270730Z 22008KT CAVOK 30/17 Q1016=
METAR LDOS 270700Z 22006KT 190V250 CAVOK 30/18 Q1016=
METAR LDOS 270630Z 23004KT 200V270 CAVOK 29/18 Q1016=
METAR LDOS 270600Z 23003KT 190V270 CAVOK 27/19 Q1016=
METAR LDOS 270530Z 24003KT 210V270 CAVOK 26/19 Q1016=
METAR LDOS 270500Z 22004KT CAVOK 24/19 Q1016=
METAR LDOS 270430Z 20004KT CAVOK 21/20 Q1016=
METAR LDOS 270400Z 19006KT CAVOK 20/19 Q1015=
METAR LDOS 270330Z 18006KT CAVOK 20/19 Q1015=
METAR LDOS 270300Z 19005KT CAVOK 21/19 Q1015=
METAR LDOS 270230Z 16005KT CAVOK 21/20 Q1015=
METAR LDOS 270200Z 11003KT CAVOK 21/19 Q1015=
METAR LDOS 270130Z VRB02KT CAVOK 21/20 Q1015=
METAR LDOS 270100Z 20004KT CAVOK 22/20 Q1015=
METAR LDOS 270030Z 19004KT CAVOK 22/20 Q1015=
METAR LDOS 270000Z 18006KT CAVOK 22/20 Q1015=
METAR LDOS 262330Z 18004KT CAVOK 22/20 Q1015=
METAR LDOS 262300Z 16003KT CAVOK 23/20 Q1015=
METAR LDOS 262230Z 14003KT CAVOK 23/20 Q1015=
METAR LDOS 262200Z 14006KT CAVOK 23/20 Q1015=
METAR LDOS 262130Z 14006KT CAVOK 23/19 Q1015=
METAR LDOS 262100Z 16005KT 130V200 CAVOK 27/19 Q1015=
METAR LDOS 262030Z 13007KT CAVOK 26/20 Q1014=
METAR LDOS 262000Z 14004KT CAVOK 26/20 Q1015=
METAR LDOS 261930Z 15004KT CAVOK 26/20 Q1014=
METAR LDOS 261900Z 14005KT CAVOK 26/21 Q1014=
METAR LDOS 261830Z 13007KT CAVOK 27/21 Q1014=